createdAt,value
2022-08-16T00:04:34.766Z,26.48
2022-08-16T00:09:27.252Z,26.51
2022-08-16T00:14:19.910Z,26.48
2022-08-16T00:19:13.514Z,26.42
2022-08-16T00:24:05.087Z,26.44
2022-08-16T00:28:57.253Z,26.35
2022-08-16T00:33:50.084Z,26.34
2022-08-16T00:38:43.473Z,26.34
2022-08-16T00:43:40.968Z,26.37
2022-08-16T00:48:28.836Z,26.3
2022-08-16T00:53:20.075Z,26.35
2022-08-16T00:58:16.155Z,26.31
2022-08-16T01:03:05.277Z,26.25
2022-08-16T01:07:58.603Z,26.24
2022-08-16T01:12:50.354Z,26.22
2022-08-16T01:17:42.559Z,26.18
2022-08-16T01:22:48.823Z,26.31
2022-08-16T01:27:27.798Z,26.15
2022-08-16T01:32:31.699Z,26.14
2022-08-16T01:37:12.192Z,26.12
2022-08-16T01:42:04.671Z,26.05
2022-08-16T01:46:57.130Z,26.08
2022-08-16T01:51:49.702Z,25.98
2022-08-16T01:56:42.261Z,26.01
2022-08-16T02:01:34.697Z,25.93
2022-08-16T02:06:34.099Z,25.93
2022-08-16T02:11:19.781Z,25.95
2022-08-16T02:16:18.660Z,26.02
2022-08-16T02:21:04.654Z,25.84
2022-08-16T02:25:57.437Z,25.9
2022-08-16T02:30:51.908Z,25.87
2022-08-16T02:35:50.080Z,25.9
2022-08-16T02:40:34.935Z,25.93
2022-08-16T02:45:27.939Z,25.73
2022-08-16T02:50:53.082Z,25.66
2022-08-16T02:55:12.108Z,25.65
2022-08-16T03:00:32.346Z,25.69
2022-08-16T03:04:57.677Z,25.58
2022-08-16T03:09:49.953Z,25.5
2022-08-16T03:14:42.560Z,25.57
2022-08-16T03:19:47.818Z,25.6
2022-08-16T03:24:28.315Z,25.69
2022-08-16T03:29:20.431Z,25.61
2022-08-16T03:34:13.132Z,25.54
2022-08-16T03:39:05.381Z,25.58
2022-08-16T03:43:58.155Z,25.66
2022-08-16T03:48:50.565Z,25.6
2022-08-16T03:53:42.810Z,25.59
2022-08-16T03:58:35.177Z,24.84
2022-08-16T04:03:27.047Z,24.43
2022-08-16T04:08:22.595Z,24.25
2022-08-16T04:13:20.136Z,24.07
2022-08-16T04:18:03.857Z,23.94
2022-08-16T04:22:56.680Z,24.21
2022-08-16T04:27:54.103Z,23.73
2022-08-16T04:32:40.867Z,23.67
2022-08-16T04:37:33.369Z,23.78
2022-08-16T04:42:29.562Z,23.79
2022-08-16T04:47:21.300Z,23.7
2022-08-16T04:52:34.405Z,23.44
2022-08-16T04:57:03.730Z,23.6
2022-08-16T05:01:58.446Z,23.68
2022-08-16T05:06:48.652Z,23.22
2022-08-16T05:11:40.860Z,23
2022-08-16T05:16:33.776Z,23.49
2022-08-16T05:21:26.955Z,23.57
2022-08-16T05:26:20.145Z,23.48
2022-08-16T05:36:04.234Z,23.25
2022-08-16T05:40:57.393Z,23.14
2022-08-16T05:45:50.942Z,23.25
2022-08-16T05:50:41.640Z,23.17
2022-08-16T05:55:35.122Z,23.32
2022-08-16T06:00:26.755Z,23.16
2022-08-16T06:05:19.108Z,23.33
2022-08-16T06:10:11.403Z,23.48
2022-08-16T06:15:07.947Z,23.84
2022-08-16T06:19:57.325Z,24
2022-08-16T06:24:52.926Z,24.08
2022-08-16T06:29:42.614Z,24.15
2022-08-16T06:34:53.317Z,24.2
2022-08-16T06:39:27.750Z,24.24
2022-08-16T06:44:20.619Z,24.29
2022-08-16T06:49:12.907Z,24.32
2022-08-16T06:54:05.408Z,24.36
2022-08-16T06:58:57.508Z,24.38
2022-08-16T07:03:54.801Z,24.41
2022-08-16T07:08:42.860Z,24.45
2022-08-16T07:18:28.210Z,24.51
2022-08-16T07:23:37.076Z,24.53
2022-08-16T07:28:20.414Z,24.57
2022-08-16T07:33:07.128Z,24.58
2022-08-16T07:37:59.344Z,24.61
2022-08-16T07:42:51.908Z,24.63
2022-08-16T07:47:44.780Z,24.65
2022-08-16T07:52:38.783Z,24.71
2022-08-16T07:57:30.224Z,24.76
2022-08-16T08:02:22.876Z,24.79
2022-08-16T08:07:16.225Z,24.81
2022-08-16T08:12:07.978Z,24.84
2022-08-16T08:17:01.448Z,24.88
2022-08-16T08:22:00.327Z,24.92
2022-08-16T08:26:49.958Z,24.96
2022-08-16T08:31:38.755Z,25.02
2022-08-16T08:36:32.872Z,25.09
2022-08-16T08:41:27.744Z,25.14
2022-08-16T08:46:18.019Z,25.21
2022-08-16T08:51:10.283Z,25.25
2022-08-16T08:56:22.682Z,25.3
2022-08-16T09:00:55.252Z,25.35
2022-08-16T09:05:51.322Z,25.38
2022-08-16T09:10:40.865Z,25.4
2022-08-16T09:15:33.575Z,25.42
2022-08-16T09:20:25.813Z,25.47
2022-08-16T09:25:19.662Z,25.46
2022-08-16T09:30:31.687Z,25.5
2022-08-16T09:35:03.208Z,25.52
2022-08-16T09:39:55.996Z,25.54
2022-08-16T09:45:09.908Z,25.56
2022-08-16T09:49:41.431Z,25.56
2022-08-16T09:54:33.920Z,25.57
2022-08-16T09:59:30.565Z,25.63
2022-08-16T10:04:33.077Z,25.62
2022-08-16T10:09:11.321Z,25.63
2022-08-16T10:14:03.828Z,25.75
2022-08-16T10:19:01.083Z,25.85
2022-08-16T10:23:49.268Z,25.88
2022-08-16T10:28:42.271Z,25.93
2022-08-16T10:33:34.749Z,26.08
2022-08-16T10:38:28.322Z,26.13
2022-08-16T10:43:20.067Z,26.17
2022-08-16T10:48:24.126Z,26.21
2022-08-16T10:53:04.982Z,26.28
2022-08-16T10:57:57.571Z,26.34
2022-08-16T11:02:57.162Z,26.38
2022-08-16T11:07:43.272Z,26.41
2022-08-16T11:12:35.398Z,26.4
2022-08-16T11:17:27.943Z,26.43
2022-08-16T11:22:22.641Z,26.41
2022-08-16T11:27:23.115Z,26.44
2022-08-16T11:32:05.960Z,26.45
2022-08-16T11:36:59.841Z,26.44
2022-08-16T11:41:51.559Z,26.46
2022-08-16T11:46:46.806Z,26.45
2022-08-16T11:51:36.445Z,26.44
2022-08-16T11:56:39.927Z,26.42
2022-08-16T12:01:29.488Z,26.42
2022-08-16T12:06:25.631Z,26.43
2022-08-16T12:11:07.041Z,26.44
2022-08-16T12:15:59.481Z,26.41
2022-08-16T12:20:52.050Z,26.44
2022-08-16T12:30:38.717Z,26.44
2022-08-16T12:40:24.239Z,26.46
2022-08-16T12:45:14.977Z,26.47
2022-08-16T12:50:07.392Z,26.47
2022-08-16T12:54:59.932Z,26.47
2022-08-16T12:59:53.840Z,26.49
2022-08-16T13:04:45.489Z,26.5
2022-08-16T13:09:42.409Z,26.51
2022-08-16T13:14:32.978Z,26.56
2022-08-16T13:19:23.289Z,26.56
2022-08-16T13:24:15.935Z,26.54
2022-08-16T13:29:08.370Z,26.55
2022-08-16T13:34:00.739Z,26.54
2022-08-16T13:38:53.019Z,26.56
2022-08-16T13:43:45.578Z,26.56
2022-08-16T13:48:43.433Z,26.58
2022-08-16T13:53:31.076Z,26.58
2022-08-16T13:58:35.906Z,26.58
2022-08-16T14:03:18.340Z,26.59
2022-08-16T14:08:09.095Z,26.58
2022-08-16T14:13:01.742Z,26.6
2022-08-16T14:18:16.205Z,26.61
2022-08-16T14:22:52.311Z,26.59
2022-08-16T14:27:42.056Z,26.62
2022-08-16T14:32:34.544Z,26.61
2022-08-16T14:37:25.385Z,26.65
2022-08-16T14:42:18.124Z,26.65
2022-08-16T14:47:10.802Z,26.65
2022-08-16T14:52:03.277Z,26.67
2022-08-16T14:56:55.716Z,26.68
2022-08-16T15:01:58.354Z,26.71
2022-08-16T15:06:41.219Z,26.7
2022-08-16T15:11:33.810Z,26.7
2022-08-16T15:16:28.856Z,26.7
2022-08-16T15:21:19.060Z,26.7
2022-08-16T15:26:13.708Z,26.71
2022-08-16T15:31:04.696Z,26.72
2022-08-16T15:35:57.793Z,26.73
2022-08-16T15:40:52.093Z,26.72
2022-08-16T15:45:43.363Z,26.76
2022-08-16T15:50:34.926Z,26.76
2022-08-16T15:55:34.622Z,26.77
2022-08-16T16:00:20.055Z,26.77
2022-08-16T16:05:12.890Z,26.78
2022-08-16T16:10:05.542Z,26.79
2022-08-16T16:14:58.267Z,26.82
2022-08-16T16:19:53.723Z,26.81
2022-08-16T16:24:43.352Z,26.81
2022-08-16T16:29:37.043Z,26.83
2022-08-16T16:34:32.167Z,26.83
2022-08-16T16:39:21.787Z,26.84
2022-08-16T16:44:18.080Z,26.86
2022-08-16T16:49:07.056Z,26.85
2022-08-16T16:53:55.976Z,26.88
2022-08-16T16:58:53.313Z,26.9
2022-08-16T17:03:41.229Z,26.89
2022-08-16T17:08:33.957Z,26.9
2022-08-16T17:13:26.307Z,26.91
2022-08-16T17:19:02.067Z,26.92
2022-08-16T17:23:11.673Z,26.92
2022-08-16T17:28:51.894Z,26.93
2022-08-16T17:32:56.892Z,26.92
2022-08-16T17:37:51.281Z,26.93
2022-08-16T17:42:46.101Z,26.94
2022-08-16T17:47:34.851Z,26.96
2022-08-16T17:52:27.395Z,26.97
2022-08-16T17:57:19.979Z,26.99
2022-08-16T18:02:15.521Z,26.98
2022-08-16T18:07:04.902Z,26.99
2022-08-16T18:11:57.653Z,26.99
2022-08-16T18:16:50.416Z,27
2022-08-16T18:21:43.025Z,26.99
2022-08-16T18:26:35.625Z,26.99
2022-08-16T18:36:20.306Z,27
2022-08-16T18:41:09.983Z,26.99
2022-08-16T18:46:02.823Z,26.98
2022-08-16T18:50:58.578Z,26.99
2022-08-16T18:55:48.222Z,26.98
2022-08-16T19:00:45.898Z,26.96
2022-08-16T19:05:33.362Z,26.91
2022-08-16T19:10:25.562Z,26.91
2022-08-16T19:15:18.227Z,26.91
2022-08-16T19:20:11.308Z,26.89
2022-08-16T19:25:03.407Z,26.9
2022-08-16T19:29:56.136Z,26.89
2022-08-16T19:34:48.646Z,26.86
2022-08-16T19:39:41.226Z,26.87
2022-08-16T19:44:33.863Z,26.89
2022-08-16T19:49:26.325Z,26.88
2022-08-16T19:54:18.893Z,26.89
2022-08-16T19:59:20.778Z,26.88
2022-08-16T20:04:04.117Z,26.82
2022-08-16T20:08:56.675Z,26.83
2022-08-16T20:13:49.212Z,26.82
2022-08-16T20:18:41.797Z,26.76
2022-08-16T20:23:34.875Z,26.79
2022-08-16T20:28:33.494Z,26.79
2022-08-16T20:33:19.533Z,26.7
2022-08-16T20:38:11.965Z,26.72
2022-08-16T20:43:04.409Z,26.66
2022-08-16T20:47:56.942Z,26.65
2022-08-16T20:52:50.103Z,26.64
2022-08-16T20:57:42.578Z,26.62
2022-08-16T21:02:35.229Z,26.62
2022-08-16T21:07:27.897Z,26.56
2022-08-16T21:12:20.380Z,26.58
2022-08-16T21:17:13.101Z,26.6
2022-08-16T21:22:05.555Z,26.57
2022-08-16T21:26:58.258Z,26.53
2022-08-16T21:31:50.930Z,26.56
2022-08-16T21:36:43.376Z,26.5
2022-08-16T21:41:35.934Z,26.5
2022-08-16T21:46:28.133Z,26.5
2022-08-16T21:51:21.050Z,26.45
2022-08-16T21:56:16.994Z,26.48
2022-08-16T22:01:06.261Z,26.43
2022-08-16T22:06:00.270Z,26.39
2022-08-16T22:11:05.404Z,26.4
2022-08-16T22:15:43.308Z,26.37
2022-08-16T22:20:35.874Z,26.31
2022-08-16T22:25:28.641Z,26.32
2022-08-16T22:30:21.226Z,26.32
2022-08-16T22:35:14.276Z,26.28
2022-08-16T22:40:06.361Z,26.25
2022-08-16T22:44:59.064Z,26.22
2022-08-16T22:49:51.854Z,26.21
2022-08-16T22:54:48.289Z,26.18
2022-08-16T22:59:37.009Z,26.19
2022-08-16T23:04:29.867Z,26.18
2022-08-16T23:09:22.340Z,26.08
2022-08-16T23:14:14.882Z,26.08
2022-08-16T23:19:07.626Z,26.07
2022-08-16T23:24:00.139Z,26.04
2022-08-16T23:28:52.642Z,26.03
2022-08-16T23:33:45.354Z,26.02
2022-08-16T23:38:39.313Z,25.98
2022-08-16T23:43:30.684Z,26
2022-08-16T23:48:23.160Z,26
2022-08-16T23:53:15.849Z,25.99
2022-08-16T23:58:08.562Z,25.99
